Las Vegas, Nevada
Traffic Map
Current Weather Conditions
Las Vegas, Nevada
Overcast
Overcast
52°
Feels Like: 52°
Wind Chill: 52° Ceiling: 25000
Heat Index: 52° Visibility: 10mi
Dew Point: 38° Wind: 3mph
Humidity: 59% Direction: 180° (S)
Pressure: 30.11in Gusts: 0mph
Raw Report DataKLAS 211856Z 18003KT 10SM FEW100 OVC250 11/03 A3011 RMK AO2 SLP194 T01110033 $
Traffic Incident Summary
Active as of:
Severity:
Category:
InformationThere was an issue retrieving the traffic information for this location. Please try a different location or try again shortly.
Advertisements
Track Severe Weather on mobile